sensor_id;sensor_type;location;lat;lon;timestamp;P1;durP1;ratioP1;P2;durP2;ratioP2
44564;SDS011;30275;51.822;-0.326;2023-04-06T00:00:48;33.30;;;17.00;;
44564;SDS011;30275;51.822;-0.326;2023-04-06T00:03:14;30.60;;;17.90;;
44564;SDS011;30275;51.822;-0.326;2023-04-06T00:05:40;31.35;;;16.70;;
44564;SDS011;30275;51.822;-0.326;2023-04-06T00:08:06;34.22;;;16.33;;
44564;SDS011;30275;51.822;-0.326;2023-04-06T00:10:32;27.88;;;15.02;;
44564;SDS011;30275;51.822;-0.326;2023-04-06T00:12:58;27.80;;;15.48;;
44564;SDS011;30275;51.822;-0.326;2023-04-06T00:15:24;30.98;;;15.82;;
44564;SDS011;30275;51.822;-0.326;2023-04-06T00:17:51;27.13;;;14.38;;
44564;SDS011;30275;51.822;-0.326;2023-04-06T00:20:16;29.50;;;14.40;;
44564;SDS011;30275;51.822;-0.326;2023-04-06T00:22:43;25.40;;;15.05;;
44564;SDS011;30275;51.822;-0.326;2023-04-06T00:25:09;27.15;;;15.07;;
44564;SDS011;30275;51.822;-0.326;2023-04-06T00:27:36;25.83;;;15.07;;
44564;SDS011;30275;51.822;-0.326;2023-04-06T00:30:03;25.98;;;14.63;;
44564;SDS011;30275;51.822;-0.326;2023-04-06T00:32:29;25.88;;;14.00;;
44564;SDS011;30275;51.822;-0.326;2023-04-06T00:34:55;22.40;;;13.13;;
44564;SDS011;30275;51.822;-0.326;2023-04-06T00:37:21;22.77;;;12.32;;
44564;SDS011;30275;51.822;-0.326;2023-04-06T00:39:47;24.25;;;13.43;;
44564;SDS011;30275;51.822;-0.326;2023-04-06T00:42:13;19.30;;;10.48;;
44564;SDS011;30275;51.822;-0.326;2023-04-06T00:44:39;24.00;;;12.70;;
44564;SDS011;30275;51.822;-0.326;2023-04-06T00:47:06;24.13;;;13.75;;
44564;SDS011;30275;51.822;-0.326;2023-04-06T00:49:32;22.52;;;11.82;;
44564;SDS011;30275;51.822;-0.326;2023-04-06T00:51:59;22.98;;;12.20;;
44564;SDS011;30275;51.822;-0.326;2023-04-06T00:54:24;19.15;;;12.13;;
44564;SDS011;30275;51.822;-0.326;2023-04-06T00:56:50;19.98;;;11.25;;
44564;SDS011;30275;51.822;-0.326;2023-04-06T00:59:16;20.38;;;11.77;;
44564;SDS011;30275;51.822;-0.326;2023-04-06T01:01:42;18.23;;;10.30;;
44564;SDS011;30275;51.822;-0.326;2023-04-06T01:04:08;18.30;;;10.80;;
44564;SDS011;30275;51.822;-0.326;2023-04-06T01:06:33;19.08;;;11.02;;
44564;SDS011;30275;51.822;-0.326;2023-04-06T01:08:59;19.55;;;10.88;;
44564;SDS011;30275;51.822;-0.326;2023-04-06T01:11:25;16.65;;;9.98;;
44564;SDS011;30275;51.822;-0.326;2023-04-06T01:13:51;18.10;;;10.55;;
44564;SDS011;30275;51.822;-0.326;2023-04-06T01:16:17;18.30;;;10.75;;
44564;SDS011;30275;51.822;-0.326;2023-04-06T01:18:42;15.25;;;8.02;;
44564;SDS011;30275;51.822;-0.326;2023-04-06T01:21:08;15.35;;;8.48;;
44564;SDS011;30275;51.822;-0.326;2023-04-06T01:23:40;14.77;;;9.18;;
44564;SDS011;30275;51.822;-0.326;2023-04-06T01:26:12;13.82;;;8.45;;
44564;SDS011;30275;51.822;-0.326;2023-04-06T01:28:38;16.05;;;8.73;;
44564;SDS011;30275;51.822;-0.326;2023-04-06T01:31:04;15.15;;;8.80;;
44564;SDS011;30275;51.822;-0.326;2023-04-06T01:33:33;14.90;;;8.27;;
44564;SDS011;30275;51.822;-0.326;2023-04-06T01:35:59;13.05;;;8.02;;
44564;SDS011;30275;51.822;-0.326;2023-04-06T01:38:25;13.68;;;8.95;;
44564;SDS011;30275;51.822;-0.326;2023-04-06T01:40:51;14.88;;;9.00;;
44564;SDS011;30275;51.822;-0.326;2023-04-06T01:43:17;13.65;;;8.02;;
44564;SDS011;30275;51.822;-0.326;2023-04-06T01:45:43;12.68;;;7.55;;
44564;SDS011;30275;51.822;-0.326;2023-04-06T01:48:09;13.35;;;7.70;;
44564;SDS011;30275;51.822;-0.326;2023-04-06T01:50:35;14.07;;;8.52;;
44564;SDS011;30275;51.822;-0.326;2023-04-06T01:53:01;10.65;;;6.25;;
44564;SDS011;30275;51.822;-0.326;2023-04-06T01:55:26;12.73;;;7.30;;
44564;SDS011;30275;51.822;-0.326;2023-04-06T01:57:52;11.82;;;7.10;;
44564;SDS011;30275;51.822;-0.326;2023-04-06T02:00:17;15.15;;;8.52;;
44564;SDS011;30275;51.822;-0.326;2023-04-06T02:02:43;11.73;;;7.20;;
44564;SDS011;30275;51.822;-0.326;2023-04-06T02:05:09;12.60;;;7.60;;
44564;SDS011;30275;51.822;-0.326;2023-04-06T02:07:34;12.10;;;7.97;;
44564;SDS011;30275;51.822;-0.326;2023-04-06T02:10:00;12.63;;;7.22;;
44564;SDS011;30275;51.822;-0.326;2023-04-06T02:12:25;12.27;;;7.85;;
44564;SDS011;30275;51.822;-0.326;2023-04-06T02:14:51;11.98;;;8.00;;
44564;SDS011;30275;51.822;-0.326;2023-04-06T02:17:17;11.80;;;6.95;;
44564;SDS011;30275;51.822;-0.326;2023-04-06T02:19:43;11.88;;;6.80;;
44564;SDS011;30275;51.822;-0.326;2023-04-06T02:22:09;11.68;;;6.80;;
44564;SDS011;30275;51.822;-0.326;2023-04-06T02:24:34;13.80;;;7.43;;
44564;SDS011;30275;51.822;-0.326;2023-04-06T02:27:00;11.95;;;7.35;;
44564;SDS011;30275;51.822;-0.326;2023-04-06T02:29:26;14.45;;;7.82;;
44564;SDS011;30275;51.822;-0.326;2023-04-06T02:31:51;11.30;;;6.80;;
44564;SDS011;30275;51.822;-0.326;2023-04-06T02:34:17;12.65;;;8.10;;
44564;SDS011;30275;51.822;-0.326;2023-04-06T02:36:46;13.80;;;8.07;;
44564;SDS011;30275;51.822;-0.326;2023-04-06T02:39:12;10.90;;;7.03;;
44564;SDS011;30275;51.822;-0.326;2023-04-06T02:41:38;13.20;;;7.13;;
44564;SDS011;30275;51.822;-0.326;2023-04-06T02:44:05;10.93;;;7.80;;
44564;SDS011;30275;51.822;-0.326;2023-04-06T02:46:32;10.98;;;7.43;;
44564;SDS011;30275;51.822;-0.326;2023-04-06T02:48:57;10.55;;;6.80;;
44564;SDS011;30275;51.822;-0.326;2023-04-06T02:51:25;11.32;;;7.07;;
44564;SDS011;30275;51.822;-0.326;2023-04-06T02:53:51;11.52;;;7.40;;
44564;SDS011;30275;51.822;-0.326;2023-04-06T02:56:17;8.65;;;6.03;;
44564;SDS011;30275;51.822;-0.326;2023-04-06T02:58:42;10.23;;;6.30;;
44564;SDS011;30275;51.822;-0.326;2023-04-06T03:01:08;10.85;;;6.22;;
44564;SDS011;30275;51.822;-0.326;2023-04-06T03:03:34;10.68;;;6.63;;
44564;SDS011;30275;51.822;-0.326;2023-04-06T03:05:59;9.63;;;6.47;;
44564;SDS011;30275;51.822;-0.326;2023-04-06T03:08:25;8.75;;;6.05;;
44564;SDS011;30275;51.822;-0.326;2023-04-06T03:10:50;9.32;;;6.32;;
44564;SDS011;30275;51.822;-0.326;2023-04-06T03:13:16;10.55;;;6.10;;
44564;SDS011;30275;51.822;-0.326;2023-04-06T03:15:42;9.85;;;6.60;;
44564;SDS011;30275;51.822;-0.326;2023-04-06T03:18:07;11.68;;;6.03;;
44564;SDS011;30275;51.822;-0.326;2023-04-06T03:20:33;10.65;;;6.63;;
44564;SDS011;30275;51.822;-0.326;2023-04-06T03:22:59;12.93;;;7.55;;
44564;SDS011;30275;51.822;-0.326;2023-04-06T03:25:25;11.02;;;7.85;;
44564;SDS011;30275;51.822;-0.326;2023-04-06T03:27:50;12.20;;;7.65;;
44564;SDS011;30275;51.822;-0.326;2023-04-06T03:30:16;12.80;;;8.25;;
44564;SDS011;30275;51.822;-0.326;2023-04-06T03:32:43;12.15;;;7.72;;
44564;SDS011;30275;51.822;-0.326;2023-04-06T03:35:09;13.07;;;7.75;;
44564;SDS011;30275;51.822;-0.326;2023-04-06T03:37:35;13.45;;;8.70;;
44564;SDS011;30275;51.822;-0.326;2023-04-06T03:40:01;14.48;;;9.30;;
44564;SDS011;30275;51.822;-0.326;2023-04-06T03:42:26;13.73;;;9.27;;
44564;SDS011;30275;51.822;-0.326;2023-04-06T03:44:52;13.63;;;10.10;;
44564;SDS011;30275;51.822;-0.326;2023-04-06T03:47:18;15.20;;;9.73;;
44564;SDS011;30275;51.822;-0.326;2023-04-06T03:49:43;16.55;;;10.43;;
44564;SDS011;30275;51.822;-0.326;2023-04-06T03:52:09;15.82;;;10.63;;
44564;SDS011;30275;51.822;-0.326;2023-04-06T03:54:34;12.85;;;9.15;;
44564;SDS011;30275;51.822;-0.326;2023-04-06T03:57:01;14.68;;;9.75;;
44564;SDS011;30275;51.822;-0.326;2023-04-06T03:59:27;15.40;;;10.27;;
44564;SDS011;30275;51.822;-0.326;2023-04-06T04:01:52;17.90;;;11.10;;
44564;SDS011;30275;51.822;-0.326;2023-04-06T04:04:18;14.07;;;9.13;;
44564;SDS011;30275;51.822;-0.326;2023-04-06T04:06:44;15.13;;;9.73;;
44564;SDS011;30275;51.822;-0.326;2023-04-06T04:09:10;16.23;;;10.40;;
44564;SDS011;30275;51.822;-0.326;2023-04-06T04:11:35;15.73;;;9.85;;
44564;SDS011;30275;51.822;-0.326;2023-04-06T04:14:01;15.88;;;9.77;;
44564;SDS011;30275;51.822;-0.326;2023-04-06T04:16:27;17.33;;;9.70;;
44564;SDS011;30275;51.822;-0.326;2023-04-06T04:18:52;17.35;;;10.68;;
44564;SDS011;30275;51.822;-0.326;2023-04-06T04:21:18;16.27;;;10.93;;
44564;SDS011;30275;51.822;-0.326;2023-04-06T04:23:43;17.02;;;11.15;;
44564;SDS011;30275;51.822;-0.326;2023-04-06T04:26:09;16.40;;;9.75;;
44564;SDS011;30275;51.822;-0.326;2023-04-06T04:28:35;17.65;;;11.10;;
44564;SDS011;30275;51.822;-0.326;2023-04-06T04:31:00;15.80;;;9.98;;
44564;SDS011;30275;51.822;-0.326;2023-04-06T04:33:26;18.65;;;10.90;;
44564;SDS011;30275;51.822;-0.326;2023-04-06T04:35:51;14.45;;;10.15;;
44564;SDS011;30275;51.822;-0.326;2023-04-06T04:38:17;16.27;;;10.43;;
44564;SDS011;30275;51.822;-0.326;2023-04-06T04:40:43;19.13;;;10.60;;
44564;SDS011;30275;51.822;-0.326;2023-04-06T04:43:08;16.60;;;10.30;;
44564;SDS011;30275;51.822;-0.326;2023-04-06T04:45:34;15.98;;;10.30;;
44564;SDS011;30275;51.822;-0.326;2023-04-06T04:48:00;16.50;;;10.50;;
44564;SDS011;30275;51.822;-0.326;2023-04-06T04:50:25;15.68;;;9.63;;
44564;SDS011;30275;51.822;-0.326;2023-04-06T04:52:51;17.60;;;10.57;;
44564;SDS011;30275;51.822;-0.326;2023-04-06T04:55:16;15.55;;;10.57;;
44564;SDS011;30275;51.822;-0.326;2023-04-06T04:57:42;16.85;;;10.57;;
44564;SDS011;30275;51.822;-0.326;2023-04-06T05:00:08;16.50;;;10.20;;
44564;SDS011;30275;51.822;-0.326;2023-04-06T05:02:34;17.13;;;10.02;;
44564;SDS011;30275;51.822;-0.326;2023-04-06T05:05:00;15.73;;;10.38;;
44564;SDS011;30275;51.822;-0.326;2023-04-06T05:07:26;15.63;;;10.23;;
44564;SDS011;30275;51.822;-0.326;2023-04-06T05:09:51;19.08;;;10.57;;
44564;SDS011;30275;51.822;-0.326;2023-04-06T05:12:18;15.25;;;10.00;;
44564;SDS011;30275;51.822;-0.326;2023-04-06T05:14:44;14.90;;;9.60;;
44564;SDS011;30275;51.822;-0.326;2023-04-06T05:17:10;14.38;;;9.25;;
44564;SDS011;30275;51.822;-0.326;2023-04-06T05:19:36;15.20;;;9.25;;
44564;SDS011;30275;51.822;-0.326;2023-04-06T05:22:01;13.23;;;9.05;;
44564;SDS011;30275;51.822;-0.326;2023-04-06T05:24:27;14.55;;;9.65;;
44564;SDS011;30275;51.822;-0.326;2023-04-06T05:26:52;14.48;;;8.88;;
44564;SDS011;30275;51.822;-0.326;2023-04-06T05:29:18;15.15;;;8.50;;
44564;SDS011;30275;51.822;-0.326;2023-04-06T05:31:45;15.02;;;9.27;;
44564;SDS011;30275;51.822;-0.326;2023-04-06T05:34:10;13.63;;;8.75;;
44564;SDS011;30275;51.822;-0.326;2023-04-06T05:36:37;13.27;;;9.48;;
44564;SDS011;30275;51.822;-0.326;2023-04-06T05:39:03;12.98;;;7.78;;
44564;SDS011;30275;51.822;-0.326;2023-04-06T05:41:28;12.45;;;7.68;;
44564;SDS011;30275;51.822;-0.326;2023-04-06T05:43:57;12.93;;;7.53;;
44564;SDS011;30275;51.822;-0.326;2023-04-06T05:46:23;10.60;;;7.15;;
44564;SDS011;30275;51.822;-0.326;2023-04-06T05:48:49;9.65;;;6.13;;
44564;SDS011;30275;51.822;-0.326;2023-04-06T05:51:14;13.30;;;7.20;;
44564;SDS011;30275;51.822;-0.326;2023-04-06T05:53:40;10.95;;;6.40;;
44564;SDS011;30275;51.822;-0.326;2023-04-06T05:56:06;9.77;;;6.20;;
44564;SDS011;30275;51.822;-0.326;2023-04-06T05:58:32;10.25;;;6.22;;
44564;SDS011;30275;51.822;-0.326;2023-04-06T06:01:00;9.68;;;5.97;;
44564;SDS011;30275;51.822;-0.326;2023-04-06T06:03:26;10.15;;;6.20;;
44564;SDS011;30275;51.822;-0.326;2023-04-06T06:05:52;9.38;;;5.90;;
44564;SDS011;30275;51.822;-0.326;2023-04-06T06:08:17;9.02;;;5.90;;
44564;SDS011;30275;51.822;-0.326;2023-04-06T06:10:43;9.25;;;5.82;;
44564;SDS011;30275;51.822;-0.326;2023-04-06T06:13:09;8.65;;;5.70;;
44564;SDS011;30275;51.822;-0.326;2023-04-06T06:15:34;7.78;;;5.93;;
44564;SDS011;30275;51.822;-0.326;2023-04-06T06:18:00;9.65;;;6.22;;
44564;SDS011;30275;51.822;-0.326;2023-04-06T06:20:26;10.13;;;6.20;;
44564;SDS011;30275;51.822;-0.326;2023-04-06T06:22:53;8.18;;;5.68;;
44564;SDS011;30275;51.822;-0.326;2023-04-06T06:25:19;9.45;;;6.03;;
44564;SDS011;30275;51.822;-0.326;2023-04-06T06:27:44;8.02;;;5.15;;
44564;SDS011;30275;51.822;-0.326;2023-04-06T06:30:10;7.95;;;5.43;;
44564;SDS011;30275;51.822;-0.326;2023-04-06T06:32:36;7.80;;;5.15;;
44564;SDS011;30275;51.822;-0.326;2023-04-06T06:35:01;8.13;;;5.20;;
44564;SDS011;30275;51.822;-0.326;2023-04-06T06:37:27;7.13;;;5.10;;
44564;SDS011;30275;51.822;-0.326;2023-04-06T06:39:53;6.88;;;4.80;;
44564;SDS011;30275;51.822;-0.326;2023-04-06T06:42:18;7.82;;;4.75;;
44564;SDS011;30275;51.822;-0.326;2023-04-06T06:44:44;8.88;;;4.82;;
44564;SDS011;30275;51.822;-0.326;2023-04-06T06:47:10;7.78;;;4.97;;
44564;SDS011;30275;51.822;-0.326;2023-04-06T06:49:35;7.45;;;5.32;;
44564;SDS011;30275;51.822;-0.326;2023-04-06T06:52:01;7.50;;;5.22;;
44564;SDS011;30275;51.822;-0.326;2023-04-06T06:54:26;8.43;;;5.15;;
44564;SDS011;30275;51.822;-0.326;2023-04-06T06:56:52;8.82;;;5.28;;
44564;SDS011;30275;51.822;-0.326;2023-04-06T06:59:19;7.45;;;5.07;;
44564;SDS011;30275;51.822;-0.326;2023-04-06T07:01:46;6.95;;;5.10;;
44564;SDS011;30275;51.822;-0.326;2023-04-06T07:04:11;7.90;;;5.10;;
44564;SDS011;30275;51.822;-0.326;2023-04-06T07:06:37;7.90;;;5.15;;
44564;SDS011;30275;51.822;-0.326;2023-04-06T07:09:02;7.25;;;5.53;;
44564;SDS011;30275;51.822;-0.326;2023-04-06T07:11:29;8.48;;;5.22;;
44564;SDS011;30275;51.822;-0.326;2023-04-06T07:13:55;6.68;;;5.00;;
44564;SDS011;30275;51.822;-0.326;2023-04-06T07:16:20;7.03;;;4.90;;
44564;SDS011;30275;51.822;-0.326;2023-04-06T07:18:46;8.60;;;5.32;;
44564;SDS011;30275;51.822;-0.326;2023-04-06T07:21:12;7.32;;;4.93;;
44564;SDS011;30275;51.822;-0.326;2023-04-06T07:23:37;9.52;;;4.85;;
44564;SDS011;30275;51.822;-0.326;2023-04-06T07:26:03;6.38;;;4.97;;
44564;SDS011;30275;51.822;-0.326;2023-04-06T07:28:29;7.85;;;5.90;;
44564;SDS011;30275;51.822;-0.326;2023-04-06T07:30:55;11.00;;;7.00;;
44564;SDS011;30275;51.822;-0.326;2023-04-06T07:33:21;12.32;;;6.90;;
44564;SDS011;30275;51.822;-0.326;2023-04-06T07:35:46;12.43;;;7.72;;
44564;SDS011;30275;51.822;-0.326;2023-04-06T07:38:12;11.15;;;7.65;;
44564;SDS011;30275;51.822;-0.326;2023-04-06T07:40:38;12.65;;;7.20;;
44564;SDS011;30275;51.822;-0.326;2023-04-06T07:43:04;12.63;;;7.72;;
44564;SDS011;30275;51.822;-0.326;2023-04-06T07:45:29;11.10;;;7.05;;
44564;SDS011;30275;51.822;-0.326;2023-04-06T07:47:55;12.40;;;7.60;;
44564;SDS011;30275;51.822;-0.326;2023-04-06T07:50:21;12.68;;;8.60;;
44564;SDS011;30275;51.822;-0.326;2023-04-06T07:52:47;12.85;;;7.57;;
44564;SDS011;30275;51.822;-0.326;2023-04-06T07:55:12;14.00;;;7.95;;
44564;SDS011;30275;51.822;-0.326;2023-04-06T07:57:39;13.82;;;6.97;;
44564;SDS011;30275;51.822;-0.326;2023-04-06T08:00:05;12.02;;;7.43;;
44564;SDS011;30275;51.822;-0.326;2023-04-06T08:02:31;11.65;;;7.15;;
44564;SDS011;30275;51.822;-0.326;2023-04-06T08:04:57;10.35;;;6.35;;
44564;SDS011;30275;51.822;-0.326;2023-04-06T08:07:22;12.63;;;7.53;;
44564;SDS011;30275;51.822;-0.326;2023-04-06T08:09:48;10.52;;;7.63;;
44564;SDS011;30275;51.822;-0.326;2023-04-06T08:12:14;10.27;;;6.00;;
44564;SDS011;30275;51.822;-0.326;2023-04-06T08:14:39;10.80;;;6.50;;
44564;SDS011;30275;51.822;-0.326;2023-04-06T08:17:05;9.98;;;6.30;;
44564;SDS011;30275;51.822;-0.326;2023-04-06T08:19:31;11.23;;;6.75;;
44564;SDS011;30275;51.822;-0.326;2023-04-06T08:21:56;7.53;;;5.28;;
44564;SDS011;30275;51.822;-0.326;2023-04-06T08:24:22;10.88;;;5.13;;
44564;SDS011;30275;51.822;-0.326;2023-04-06T08:26:48;11.77;;;6.63;;
44564;SDS011;30275;51.822;-0.326;2023-04-06T08:29:13;8.80;;;5.60;;
44564;SDS011;30275;51.822;-0.326;2023-04-06T08:31:39;7.05;;;5.00;;
44564;SDS011;30275;51.822;-0.326;2023-04-06T08:34:05;7.38;;;4.47;;
44564;SDS011;30275;51.822;-0.326;2023-04-06T08:36:31;6.55;;;3.90;;
44564;SDS011;30275;51.822;-0.326;2023-04-06T08:38:58;10.48;;;4.10;;
44564;SDS011;30275;51.822;-0.326;2023-04-06T08:41:25;6.25;;;3.13;;
44564;SDS011;30275;51.822;-0.326;2023-04-06T08:44:00;8.65;;;3.70;;
44564;SDS011;30275;51.822;-0.326;2023-04-06T08:46:28;6.00;;;3.00;;
44564;SDS011;30275;51.822;-0.326;2023-04-06T08:48:58;7.43;;;2.95;;
44564;SDS011;30275;51.822;-0.326;2023-04-06T08:51:25;8.13;;;3.30;;
44564;SDS011;30275;51.822;-0.326;2023-04-06T08:53:55;5.95;;;2.90;;
44564;SDS011;30275;51.822;-0.326;2023-04-06T08:56:22;4.63;;;2.63;;
44564;SDS011;30275;51.822;-0.326;2023-04-06T08:58:48;4.80;;;2.58;;
44564;SDS011;30275;51.822;-0.326;2023-04-06T09:01:16;4.13;;;2.70;;
44564;SDS011;30275;51.822;-0.326;2023-04-06T09:03:45;3.88;;;2.38;;
44564;SDS011;30275;51.822;-0.326;2023-04-06T09:06:12;2.95;;;2.05;;
44564;SDS011;30275;51.822;-0.326;2023-04-06T09:08:39;6.20;;;2.13;;
44564;SDS011;30275;51.822;-0.326;2023-04-06T09:11:06;4.05;;;2.30;;
44564;SDS011;30275;51.822;-0.326;2023-04-06T09:13:43;6.00;;;2.35;;
44564;SDS011;30275;51.822;-0.326;2023-04-06T09:16:10;4.35;;;2.30;;
44564;SDS011;30275;51.822;-0.326;2023-04-06T09:18:36;6.25;;;2.75;;
44564;SDS011;30275;51.822;-0.326;2023-04-06T09:21:02;5.68;;;2.70;;
44564;SDS011;30275;51.822;-0.326;2023-04-06T09:23:29;5.72;;;2.88;;
44564;SDS011;30275;51.822;-0.326;2023-04-06T09:26:09;4.97;;;2.47;;
44564;SDS011;30275;51.822;-0.326;2023-04-06T09:31:08;5.63;;;2.33;;
44564;SDS011;30275;51.822;-0.326;2023-04-06T09:33:37;5.20;;;2.63;;
44564;SDS011;30275;51.822;-0.326;2023-04-06T09:36:04;3.05;;;1.92;;
44564;SDS011;30275;51.822;-0.326;2023-04-06T09:38:31;4.10;;;2.17;;
44564;SDS011;30275;51.822;-0.326;2023-04-06T09:40:57;5.40;;;2.33;;
44564;SDS011;30275;51.822;-0.326;2023-04-06T09:43:28;2.63;;;1.35;;
44564;SDS011;30275;51.822;-0.326;2023-04-06T09:45:55;1.52;;;1.20;;
44564;SDS011;30275;51.822;-0.326;2023-04-06T09:48:21;2.13;;;1.20;;
44564;SDS011;30275;51.822;-0.326;2023-04-06T09:50:49;2.38;;;1.30;;
44564;SDS011;30275;51.822;-0.326;2023-04-06T09:53:20;2.17;;;1.20;;
44564;SDS011;30275;51.822;-0.326;2023-04-06T09:55:50;2.05;;;1.10;;
44564;SDS011;30275;51.822;-0.326;2023-04-06T09:58:19;4.15;;;1.58;;
44564;SDS011;30275;51.822;-0.326;2023-04-06T10:01:02;2.83;;;1.50;;
44564;SDS011;30275;51.822;-0.326;2023-04-06T10:03:49;4.03;;;1.23;;
44564;SDS011;30275;51.822;-0.326;2023-04-06T10:06:22;1.73;;;1.27;;
44564;SDS011;30275;51.822;-0.326;2023-04-06T10:08:51;3.17;;;1.70;;
44564;SDS011;30275;51.822;-0.326;2023-04-06T10:11:19;4.05;;;1.90;;
44564;SDS011;30275;51.822;-0.326;2023-04-06T10:13:46;2.45;;;2.13;;
44564;SDS011;30275;51.822;-0.326;2023-04-06T10:16:14;2.40;;;1.67;;
44564;SDS011;30275;51.822;-0.326;2023-04-06T10:18:40;2.50;;;1.77;;
44564;SDS011;30275;51.822;-0.326;2023-04-06T10:21:16;3.65;;;1.60;;
44564;SDS011;30275;51.822;-0.326;2023-04-06T10:24:19;3.22;;;1.70;;
44564;SDS011;30275;51.822;-0.326;2023-04-06T10:26:38;3.42;;;1.80;;
44564;SDS011;30275;51.822;-0.326;2023-04-06T10:29:05;3.40;;;1.70;;
44564;SDS011;30275;51.822;-0.326;2023-04-06T10:31:31;4.45;;;2.08;;
44564;SDS011;30275;51.822;-0.326;2023-04-06T10:33:57;4.13;;;2.17;;
44564;SDS011;30275;51.822;-0.326;2023-04-06T10:36:28;3.40;;;2.05;;
44564;SDS011;30275;51.822;-0.326;2023-04-06T10:38:58;4.68;;;2.20;;
44564;SDS011;30275;51.822;-0.326;2023-04-06T10:41:35;3.13;;;2.10;;
44564;SDS011;30275;51.822;-0.326;2023-04-06T10:44:08;3.78;;;2.40;;
44564;SDS011;30275;51.822;-0.326;2023-04-06T10:46:41;5.18;;;2.20;;
44564;SDS011;30275;51.822;-0.326;2023-04-06T10:49:18;4.53;;;2.70;;
44564;SDS011;30275;51.822;-0.326;2023-04-06T10:51:44;3.75;;;2.60;;
44564;SDS011;30275;51.822;-0.326;2023-04-06T10:54:10;4.40;;;2.60;;
44564;SDS011;30275;51.822;-0.326;2023-04-06T10:56:37;4.25;;;2.55;;
44564;SDS011;30275;51.822;-0.326;2023-04-06T10:59:04;3.47;;;2.53;;
44564;SDS011;30275;51.822;-0.326;2023-04-06T11:01:31;3.50;;;2.63;;
44564;SDS011;30275;51.822;-0.326;2023-04-06T11:03:57;2.88;;;2.13;;
44564;SDS011;30275;51.822;-0.326;2023-04-06T11:06:26;3.13;;;2.00;;
44564;SDS011;30275;51.822;-0.326;2023-04-06T11:08:54;4.13;;;1.90;;
44564;SDS011;30275;51.822;-0.326;2023-04-06T11:11:21;4.30;;;1.98;;
44564;SDS011;30275;51.822;-0.326;2023-04-06T11:21:17;3.50;;;1.90;;
44564;SDS011;30275;51.822;-0.326;2023-04-06T11:23:44;2.65;;;1.65;;
44564;SDS011;30275;51.822;-0.326;2023-04-06T11:26:10;3.70;;;1.77;;
44564;SDS011;30275;51.822;-0.326;2023-04-06T11:28:40;2.92;;;1.60;;
44564;SDS011;30275;51.822;-0.326;2023-04-06T11:31:08;2.28;;;1.80;;
44564;SDS011;30275;51.822;-0.326;2023-04-06T11:33:36;2.67;;;1.90;;
44564;SDS011;30275;51.822;-0.326;2023-04-06T11:36:05;4.28;;;1.80;;
44564;SDS011;30275;51.822;-0.326;2023-04-06T11:38:31;1.58;;;1.40;;
44564;SDS011;30275;51.822;-0.326;2023-04-06T11:40:56;3.35;;;1.80;;
44564;SDS011;30275;51.822;-0.326;2023-04-06T11:43:26;2.28;;;1.73;;
44564;SDS011;30275;51.822;-0.326;2023-04-06T11:46:02;2.53;;;1.80;;
44564;SDS011;30275;51.822;-0.326;2023-04-06T11:48:28;2.60;;;1.48;;
44564;SDS011;30275;51.822;-0.326;2023-04-06T11:50:55;3.63;;;1.77;;
44564;SDS011;30275;51.822;-0.326;2023-04-06T11:53:29;2.72;;;1.60;;
44564;SDS011;30275;51.822;-0.326;2023-04-06T11:55:55;2.75;;;1.65;;
44564;SDS011;30275;51.822;-0.326;2023-04-06T11:58:21;4.28;;;1.50;;
44564;SDS011;30275;51.822;-0.326;2023-04-06T12:00:47;3.47;;;1.50;;
44564;SDS011;30275;51.822;-0.326;2023-04-06T12:03:13;2.58;;;1.73;;
44564;SDS011;30275;51.822;-0.326;2023-04-06T12:05:39;3.60;;;1.98;;
44564;SDS011;30275;51.822;-0.326;2023-04-06T12:08:05;3.33;;;1.92;;
44564;SDS011;30275;51.822;-0.326;2023-04-06T12:10:30;4.47;;;1.80;;
44564;SDS011;30275;51.822;-0.326;2023-04-06T12:12:56;3.05;;;1.70;;
44564;SDS011;30275;51.822;-0.326;2023-04-06T12:15:22;3.22;;;1.52;;
44564;SDS011;30275;51.822;-0.326;2023-04-06T12:17:48;2.65;;;1.60;;
44564;SDS011;30275;51.822;-0.326;2023-04-06T12:20:14;3.28;;;1.60;;
44564;SDS011;30275;51.822;-0.326;2023-04-06T12:22:40;2.53;;;1.60;;
44564;SDS011;30275;51.822;-0.326;2023-04-06T12:25:06;4.22;;;1.60;;
44564;SDS011;30275;51.822;-0.326;2023-04-06T12:27:32;3.90;;;1.90;;
44564;SDS011;30275;51.822;-0.326;2023-04-06T12:29:57;3.30;;;1.50;;
44564;SDS011;30275;51.822;-0.326;2023-04-06T12:32:23;3.55;;;1.90;;
44564;SDS011;30275;51.822;-0.326;2023-04-06T12:34:50;3.75;;;1.92;;
44564;SDS011;30275;51.822;-0.326;2023-04-06T12:37:17;4.20;;;1.70;;
44564;SDS011;30275;51.822;-0.326;2023-04-06T12:39:43;4.00;;;2.00;;
44564;SDS011;30275;51.822;-0.326;2023-04-06T12:42:10;2.50;;;1.60;;
44564;SDS011;30275;51.822;-0.326;2023-04-06T12:44:35;3.03;;;1.58;;
44564;SDS011;30275;51.822;-0.326;2023-04-06T12:47:01;4.80;;;1.95;;
44564;SDS011;30275;51.822;-0.326;2023-04-06T12:49:27;3.22;;;2.28;;
44564;SDS011;30275;51.822;-0.326;2023-04-06T12:51:53;3.28;;;1.83;;
44564;SDS011;30275;51.822;-0.326;2023-04-06T12:54:18;4.22;;;1.63;;
44564;SDS011;30275;51.822;-0.326;2023-04-06T12:56:45;3.35;;;1.70;;
44564;SDS011;30275;51.822;-0.326;2023-04-06T12:59:11;6.90;;;1.40;;
44564;SDS011;30275;51.822;-0.326;2023-04-06T13:01:36;2.78;;;1.50;;
44564;SDS011;30275;51.822;-0.326;2023-04-06T13:04:02;3.30;;;1.50;;
44564;SDS011;30275;51.822;-0.326;2023-04-06T13:06:28;2.72;;;1.65;;
44564;SDS011;30275;51.822;-0.326;2023-04-06T13:08:54;3.15;;;1.50;;
44564;SDS011;30275;51.822;-0.326;2023-04-06T13:11:20;3.78;;;1.80;;
44564;SDS011;30275;51.822;-0.326;2023-04-06T13:13:46;2.97;;;1.77;;
44564;SDS011;30275;51.822;-0.326;2023-04-06T13:16:12;3.25;;;1.63;;
44564;SDS011;30275;51.822;-0.326;2023-04-06T13:18:37;7.07;;;2.15;;
44564;SDS011;30275;51.822;-0.326;2023-04-06T13:21:04;3.30;;;1.55;;
44564;SDS011;30275;51.822;-0.326;2023-04-06T13:23:30;3.05;;;1.90;;
44564;SDS011;30275;51.822;-0.326;2023-04-06T13:25:57;5.82;;;2.17;;
44564;SDS011;30275;51.822;-0.326;2023-04-06T13:28:30;5.95;;;2.10;;
44564;SDS011;30275;51.822;-0.326;2023-04-06T13:30:57;5.25;;;2.60;;
44564;SDS011;30275;51.822;-0.326;2023-04-06T13:33:24;6.57;;;1.88;;
44564;SDS011;30275;51.822;-0.326;2023-04-06T13:35:50;3.67;;;1.60;;
44564;SDS011;30275;51.822;-0.326;2023-04-06T13:38:16;3.15;;;1.60;;
44564;SDS011;30275;51.822;-0.326;2023-04-06T13:40:41;3.28;;;1.27;;
44564;SDS011;30275;51.822;-0.326;2023-04-06T13:43:07;4.00;;;1.48;;
44564;SDS011;30275;51.822;-0.326;2023-04-06T13:45:33;1.35;;;0.98;;
44564;SDS011;30275;51.822;-0.326;2023-04-06T13:47:59;3.85;;;1.52;;
44564;SDS011;30275;51.822;-0.326;2023-04-06T13:50:25;2.42;;;1.10;;
44564;SDS011;30275;51.822;-0.326;2023-04-06T13:52:51;3.65;;;1.50;;
44564;SDS011;30275;51.822;-0.326;2023-04-06T13:55:17;4.18;;;1.50;;
44564;SDS011;30275;51.822;-0.326;2023-04-06T13:57:42;3.85;;;1.38;;
44564;SDS011;30275;51.822;-0.326;2023-04-06T14:00:08;3.17;;;1.85;;
44564;SDS011;30275;51.822;-0.326;2023-04-06T14:02:36;5.90;;;2.10;;
44564;SDS011;30275;51.822;-0.326;2023-04-06T14:05:02;2.60;;;1.48;;
44564;SDS011;30275;51.822;-0.326;2023-04-06T14:07:28;4.88;;;1.80;;
44564;SDS011;30275;51.822;-0.326;2023-04-06T14:09:53;3.55;;;1.33;;
44564;SDS011;30275;51.822;-0.326;2023-04-06T14:12:19;4.00;;;1.50;;
44564;SDS011;30275;51.822;-0.326;2023-04-06T14:14:45;6.00;;;1.75;;
44564;SDS011;30275;51.822;-0.326;2023-04-06T14:17:11;2.72;;;1.20;;
44564;SDS011;30275;51.822;-0.326;2023-04-06T14:19:36;2.15;;;1.60;;
44564;SDS011;30275;51.822;-0.326;2023-04-06T14:22:02;3.80;;;2.00;;
44564;SDS011;30275;51.822;-0.326;2023-04-06T14:24:29;1.73;;;1.63;;
44564;SDS011;30275;51.822;-0.326;2023-04-06T14:26:55;2.17;;;1.40;;
44564;SDS011;30275;51.822;-0.326;2023-04-06T14:29:21;2.00;;;1.33;;
44564;SDS011;30275;51.822;-0.326;2023-04-06T14:31:47;3.78;;;1.40;;